sensor_id;sensor_type;location;lat;lon;timestamp;temperature;humidity
10030;DHT22;5055;52.054;8.524;2022-09-09T00:00:14;15.90;97.00
10030;DHT22;5055;52.054;8.524;2022-09-09T00:02:47;15.90;97.00
10030;DHT22;5055;52.054;8.524;2022-09-09T00:05:23;15.90;97.00
10030;DHT22;5055;52.054;8.524;2022-09-09T00:07:55;15.90;97.00
10030;DHT22;5055;52.054;8.524;2022-09-09T00:10:29;15.90;97.00
10030;DHT22;5055;52.054;8.524;2022-09-09T00:13:04;15.90;97.00
10030;DHT22;5055;52.054;8.524;2022-09-09T00:15:38;15.90;97.00
10030;DHT22;5055;52.054;8.524;2022-09-09T00:18:16;15.90;97.00
10030;DHT22;5055;52.054;8.524;2022-09-09T00:20:49;15.90;97.00
10030;DHT22;5055;52.054;8.524;2022-09-09T00:23:25;15.90;97.00
10030;DHT22;5055;52.054;8.524;2022-09-09T00:26:02;16.00;97.00
10030;DHT22;5055;52.054;8.524;2022-09-09T00:28:38;16.00;97.00
10030;DHT22;5055;52.054;8.524;2022-09-09T00:31:20;16.10;97.00
10030;DHT22;5055;52.054;8.524;2022-09-09T00:33:53;16.10;97.00
10030;DHT22;5055;52.054;8.524;2022-09-09T00:36:28;16.20;97.00
10030;DHT22;5055;52.054;8.524;2022-09-09T00:39:01;16.20;97.00
10030;DHT22;5055;52.054;8.524;2022-09-09T00:41:52;16.20;97.00
10030;DHT22;5055;52.054;8.524;2022-09-09T00:44:30;16.20;97.00
10030;DHT22;5055;52.054;8.524;2022-09-09T00:47:12;16.20;97.00
10030;DHT22;5055;52.054;8.524;2022-09-09T00:49:54;16.20;97.00
10030;DHT22;5055;52.054;8.524;2022-09-09T00:52:35;16.10;97.00
10030;DHT22;5055;52.054;8.524;2022-09-09T00:55:11;16.10;97.00
10030;DHT22;5055;52.054;8.524;2022-09-09T00:57:45;16.00;97.00
10030;DHT22;5055;52.054;8.524;2022-09-09T01:00:20;16.00;97.00
10030;DHT22;5055;52.054;8.524;2022-09-09T01:03:12;15.90;97.00
10030;DHT22;5055;52.054;8.524;2022-09-09T01:05:49;15.90;97.00
10030;DHT22;5055;52.054;8.524;2022-09-09T01:11:21;15.90;97.00
10030;DHT22;5055;52.054;8.524;2022-09-09T01:13:58;15.90;97.00
10030;DHT22;5055;52.054;8.524;2022-09-09T01:16:30;15.90;97.00
10030;DHT22;5055;52.054;8.524;2022-09-09T01:19:00;15.90;97.00
10030;DHT22;5055;52.054;8.524;2022-09-09T01:21:37;15.90;97.00
10030;DHT22;5055;52.054;8.524;2022-09-09T01:24:27;15.90;97.00
10030;DHT22;5055;52.054;8.524;2022-09-09T01:26:58;15.90;97.00
10030;DHT22;5055;52.054;8.524;2022-09-09T01:29:27;15.90;97.00
10030;DHT22;5055;52.054;8.524;2022-09-09T01:31:57;15.80;97.00
10030;DHT22;5055;52.054;8.524;2022-09-09T01:34:28;15.90;97.00
10030;DHT22;5055;52.054;8.524;2022-09-09T01:37:02;15.80;97.00
10030;DHT22;5055;52.054;8.524;2022-09-09T01:39:32;15.80;97.00
10030;DHT22;5055;52.054;8.524;2022-09-09T01:42:03;15.90;97.00
10030;DHT22;5055;52.054;8.524;2022-09-09T01:44:32;15.90;97.00
10030;DHT22;5055;52.054;8.524;2022-09-09T01:47:02;15.90;97.00
10030;DHT22;5055;52.054;8.524;2022-09-09T01:49:30;15.90;97.00
10030;DHT22;5055;52.054;8.524;2022-09-09T01:52:00;15.90;97.00
10030;DHT22;5055;52.054;8.524;2022-09-09T01:54:31;15.90;97.00
10030;DHT22;5055;52.054;8.524;2022-09-09T01:57:08;15.90;97.00
10030;DHT22;5055;52.054;8.524;2022-09-09T02:00:02;16.00;97.00
10030;DHT22;5055;52.054;8.524;2022-09-09T02:02:37;15.90;97.00
10030;DHT22;5055;52.054;8.524;2022-09-09T02:05:17;15.90;97.00
10030;DHT22;5055;52.054;8.524;2022-09-09T02:07:49;15.90;97.00
10030;DHT22;5055;52.054;8.524;2022-09-09T02:10:21;15.80;97.00
10030;DHT22;5055;52.054;8.524;2022-09-09T02:12:54;15.80;97.00
10030;DHT22;5055;52.054;8.524;2022-09-09T02:15:28;15.80;97.00
10030;DHT22;5055;52.054;8.524;2022-09-09T02:17:58;15.80;97.00
10030;DHT22;5055;52.054;8.524;2022-09-09T02:20:30;15.70;97.00
10030;DHT22;5055;52.054;8.524;2022-09-09T02:23:01;15.70;97.00
10030;DHT22;5055;52.054;8.524;2022-09-09T02:25:30;15.70;97.00
10030;DHT22;5055;52.054;8.524;2022-09-09T02:27:59;15.70;97.00
10030;DHT22;5055;52.054;8.524;2022-09-09T02:30:30;15.70;97.00
10030;DHT22;5055;52.054;8.524;2022-09-09T02:33:04;15.70;97.00
10030;DHT22;5055;52.054;8.524;2022-09-09T02:35:35;15.70;97.00
10030;DHT22;5055;52.054;8.524;2022-09-09T02:38:08;15.60;97.00
10030;DHT22;5055;52.054;8.524;2022-09-09T02:40:38;15.60;97.00
10030;DHT22;5055;52.054;8.524;2022-09-09T02:43:08;15.60;97.00
10030;DHT22;5055;52.054;8.524;2022-09-09T02:45:41;15.60;97.00
10030;DHT22;5055;52.054;8.524;2022-09-09T02:48:14;15.60;97.00
10030;DHT22;5055;52.054;8.524;2022-09-09T02:50:52;15.60;97.00
10030;DHT22;5055;52.054;8.524;2022-09-09T02:53:26;15.60;97.00
10030;DHT22;5055;52.054;8.524;2022-09-09T02:56:00;15.60;97.00
10030;DHT22;5055;52.054;8.524;2022-09-09T02:58:33;15.60;97.00
10030;DHT22;5055;52.054;8.524;2022-09-09T03:01:02;15.60;97.00
10030;DHT22;5055;52.054;8.524;2022-09-09T03:03:31;15.70;97.00
10030;DHT22;5055;52.054;8.524;2022-09-09T03:06:00;15.60;97.00
10030;DHT22;5055;52.054;8.524;2022-09-09T03:08:28;15.60;97.00
10030;DHT22;5055;52.054;8.524;2022-09-09T03:10:58;15.60;97.00
10030;DHT22;5055;52.054;8.524;2022-09-09T03:13:28;15.60;97.00
10030;DHT22;5055;52.054;8.524;2022-09-09T03:15:58;15.50;97.00
10030;DHT22;5055;52.054;8.524;2022-09-09T03:18:27;15.50;97.00
10030;DHT22;5055;52.054;8.524;2022-09-09T03:20:55;15.50;97.00
10030;DHT22;5055;52.054;8.524;2022-09-09T03:23:24;15.40;97.00
10030;DHT22;5055;52.054;8.524;2022-09-09T03:25:52;15.40;97.00
10030;DHT22;5055;52.054;8.524;2022-09-09T03:28:23;15.30;97.00
10030;DHT22;5055;52.054;8.524;2022-09-09T03:31:00;15.30;97.00
10030;DHT22;5055;52.054;8.524;2022-09-09T03:33:28;15.30;97.00
10030;DHT22;5055;52.054;8.524;2022-09-09T03:35:58;15.30;97.00
10030;DHT22;5055;52.054;8.524;2022-09-09T03:38:26;15.30;97.00
10030;DHT22;5055;52.054;8.524;2022-09-09T03:40:56;15.20;97.00
10030;DHT22;5055;52.054;8.524;2022-09-09T03:43:25;15.20;97.00
10030;DHT22;5055;52.054;8.524;2022-09-09T03:45:54;15.20;97.00
10030;DHT22;5055;52.054;8.524;2022-09-09T03:48:26;15.10;97.00
10030;DHT22;5055;52.054;8.524;2022-09-09T03:50:55;15.10;97.00
10030;DHT22;5055;52.054;8.524;2022-09-09T03:53:25;15.10;97.00
10030;DHT22;5055;52.054;8.524;2022-09-09T03:55:55;15.10;97.00
10030;DHT22;5055;52.054;8.524;2022-09-09T03:58:27;15.10;97.00
10030;DHT22;5055;52.054;8.524;2022-09-09T04:00:57;15.00;97.00
10030;DHT22;5055;52.054;8.524;2022-09-09T04:03:27;15.00;97.00
10030;DHT22;5055;52.054;8.524;2022-09-09T04:05:58;15.00;97.00
10030;DHT22;5055;52.054;8.524;2022-09-09T04:08:28;15.00;97.00
10030;DHT22;5055;52.054;8.524;2022-09-09T04:10:58;15.00;97.00
10030;DHT22;5055;52.054;8.524;2022-09-09T04:13:27;15.00;97.00
10030;DHT22;5055;52.054;8.524;2022-09-09T04:15:57;15.00;97.00
10030;DHT22;5055;52.054;8.524;2022-09-09T04:18:27;15.00;97.00
10030;DHT22;5055;52.054;8.524;2022-09-09T04:20:56;15.00;97.00
10030;DHT22;5055;52.054;8.524;2022-09-09T04:23:25;15.00;97.00
10030;DHT22;5055;52.054;8.524;2022-09-09T04:25:57;15.00;97.00
10030;DHT22;5055;52.054;8.524;2022-09-09T04:28:29;15.10;97.00
10030;DHT22;5055;52.054;8.524;2022-09-09T04:31:04;15.10;97.00
10030;DHT22;5055;52.054;8.524;2022-09-09T04:33:34;15.20;97.00
10030;DHT22;5055;52.054;8.524;2022-09-09T04:36:07;15.20;97.00
10030;DHT22;5055;52.054;8.524;2022-09-09T04:38:38;15.30;97.00
10030;DHT22;5055;52.054;8.524;2022-09-09T04:41:07;15.30;97.00
10030;DHT22;5055;52.054;8.524;2022-09-09T04:43:38;15.30;97.00
10030;DHT22;5055;52.054;8.524;2022-09-09T04:46:06;15.30;97.00
10030;DHT22;5055;52.054;8.524;2022-09-09T04:48:36;15.30;97.00
10030;DHT22;5055;52.054;8.524;2022-09-09T04:51:06;15.30;97.00
10030;DHT22;5055;52.054;8.524;2022-09-09T04:53:36;15.30;97.00
10030;DHT22;5055;52.054;8.524;2022-09-09T04:56:06;15.30;97.00
10030;DHT22;5055;52.054;8.524;2022-09-09T04:58:37;15.30;97.00
10030;DHT22;5055;52.054;8.524;2022-09-09T05:01:07;15.20;97.00
10030;DHT22;5055;52.054;8.524;2022-09-09T05:03:37;15.20;97.00
10030;DHT22;5055;52.054;8.524;2022-09-09T05:06:06;15.20;97.00
10030;DHT22;5055;52.054;8.524;2022-09-09T05:08:36;15.20;97.00
10030;DHT22;5055;52.054;8.524;2022-09-09T05:11:16;15.20;97.00
10030;DHT22;5055;52.054;8.524;2022-09-09T05:13:46;15.20;97.00
10030;DHT22;5055;52.054;8.524;2022-09-09T05:16:15;15.20;97.00
10030;DHT22;5055;52.054;8.524;2022-09-09T05:18:45;15.20;97.00
10030;DHT22;5055;52.054;8.524;2022-09-09T05:21:15;15.20;97.00
10030;DHT22;5055;52.054;8.524;2022-09-09T05:23:45;15.20;97.00
10030;DHT22;5055;52.054;8.524;2022-09-09T05:26:15;15.20;97.00
10030;DHT22;5055;52.054;8.524;2022-09-09T05:28:47;15.20;97.00
10030;DHT22;5055;52.054;8.524;2022-09-09T05:31:16;15.30;97.00
10030;DHT22;5055;52.054;8.524;2022-09-09T05:33:48;15.30;97.00
10030;DHT22;5055;52.054;8.524;2022-09-09T05:36:18;15.30;97.00
10030;DHT22;5055;52.054;8.524;2022-09-09T05:38:47;15.30;97.00
10030;DHT22;5055;52.054;8.524;2022-09-09T05:41:16;15.30;97.00
10030;DHT22;5055;52.054;8.524;2022-09-09T05:43:47;15.40;97.00
10030;DHT22;5055;52.054;8.524;2022-09-09T05:46:17;15.40;97.00
10030;DHT22;5055;52.054;8.524;2022-09-09T05:48:46;15.50;97.00
10030;DHT22;5055;52.054;8.524;2022-09-09T05:51:18;15.70;97.00
10030;DHT22;5055;52.054;8.524;2022-09-09T05:53:48;15.80;97.00
10030;DHT22;5055;52.054;8.524;2022-09-09T05:56:19;15.80;97.00
10030;DHT22;5055;52.054;8.524;2022-09-09T05:58:49;16.00;97.00
10030;DHT22;5055;52.054;8.524;2022-09-09T06:01:19;16.30;97.00
10030;DHT22;5055;52.054;8.524;2022-09-09T06:03:49;16.70;97.00
10030;DHT22;5055;52.054;8.524;2022-09-09T06:06:21;17.10;97.00
10030;DHT22;5055;52.054;8.524;2022-09-09T06:08:51;17.50;97.00
10030;DHT22;5055;52.054;8.524;2022-09-09T06:11:21;17.70;97.00
10030;DHT22;5055;52.054;8.524;2022-09-09T06:13:50;17.50;97.00
10030;DHT22;5055;52.054;8.524;2022-09-09T06:16:22;17.50;97.00
10030;DHT22;5055;52.054;8.524;2022-09-09T06:18:51;17.70;97.00
10030;DHT22;5055;52.054;8.524;2022-09-09T06:21:24;17.90;97.00
10030;DHT22;5055;52.054;8.524;2022-09-09T06:23:53;18.20;97.00
10030;DHT22;5055;52.054;8.524;2022-09-09T06:26:28;18.50;97.00
10030;DHT22;5055;52.054;8.524;2022-09-09T06:28:58;18.50;97.00
10030;DHT22;5055;52.054;8.524;2022-09-09T06:31:28;18.60;97.00
10030;DHT22;5055;52.054;8.524;2022-09-09T06:33:58;18.70;97.00
10030;DHT22;5055;52.054;8.524;2022-09-09T06:36:29;19.20;97.00
10030;DHT22;5055;52.054;8.524;2022-09-09T06:38:58;19.60;97.00
10030;DHT22;5055;52.054;8.524;2022-09-09T06:41:28;20.10;97.00
10030;DHT22;5055;52.054;8.524;2022-09-09T06:43:57;20.40;97.00
10030;DHT22;5055;52.054;8.524;2022-09-09T06:46:28;20.60;97.00
10030;DHT22;5055;52.054;8.524;2022-09-09T06:48:58;20.60;97.00
10030;DHT22;5055;52.054;8.524;2022-09-09T06:51:29;20.40;97.00
10030;DHT22;5055;52.054;8.524;2022-09-09T06:53:59;19.90;97.00
10030;DHT22;5055;52.054;8.524;2022-09-09T06:56:30;19.80;97.00
10030;DHT22;5055;52.054;8.524;2022-09-09T06:58:59;19.70;97.00
10030;DHT22;5055;52.054;8.524;2022-09-09T07:01:32;19.30;97.00
10030;DHT22;5055;52.054;8.524;2022-09-09T07:04:02;19.00;97.00
10030;DHT22;5055;52.054;8.524;2022-09-09T07:06:34;18.70;97.00
10030;DHT22;5055;52.054;8.524;2022-09-09T07:09:04;18.60;97.00
10030;DHT22;5055;52.054;8.524;2022-09-09T07:11:34;18.30;97.00
10030;DHT22;5055;52.054;8.524;2022-09-09T07:14:05;18.20;97.00
10030;DHT22;5055;52.054;8.524;2022-09-09T07:16:34;18.10;97.00
10030;DHT22;5055;52.054;8.524;2022-09-09T07:19:04;18.00;97.00
10030;DHT22;5055;52.054;8.524;2022-09-09T07:21:34;18.00;97.00
10030;DHT22;5055;52.054;8.524;2022-09-09T07:24:02;18.00;97.00
10030;DHT22;5055;52.054;8.524;2022-09-09T07:26:34;18.00;97.00
10030;DHT22;5055;52.054;8.524;2022-09-09T07:29:03;18.00;97.00
10030;DHT22;5055;52.054;8.524;2022-09-09T07:31:33;18.10;97.00
10030;DHT22;5055;52.054;8.524;2022-09-09T07:34:03;18.10;97.00
10030;DHT22;5055;52.054;8.524;2022-09-09T07:36:35;18.10;97.00
10030;DHT22;5055;52.054;8.524;2022-09-09T07:39:05;18.10;97.00
10030;DHT22;5055;52.054;8.524;2022-09-09T07:41:38;18.10;97.00
10030;DHT22;5055;52.054;8.524;2022-09-09T07:44:11;18.00;97.00
10030;DHT22;5055;52.054;8.524;2022-09-09T07:46:40;18.10;97.00
10030;DHT22;5055;52.054;8.524;2022-09-09T07:49:09;18.20;97.00
10030;DHT22;5055;52.054;8.524;2022-09-09T07:51:41;18.20;97.00
10030;DHT22;5055;52.054;8.524;2022-09-09T07:54:11;18.20;97.00
10030;DHT22;5055;52.054;8.524;2022-09-09T07:56:41;18.20;97.00
10030;DHT22;5055;52.054;8.524;2022-09-09T07:59:10;18.20;97.00
10030;DHT22;5055;52.054;8.524;2022-09-09T08:01:40;18.30;97.00
10030;DHT22;5055;52.054;8.524;2022-09-09T08:04:11;18.40;97.00
10030;DHT22;5055;52.054;8.524;2022-09-09T08:06:44;18.50;97.00
10030;DHT22;5055;52.054;8.524;2022-09-09T08:09:14;18.60;97.00
10030;DHT22;5055;52.054;8.524;2022-09-09T08:11:43;18.60;97.00
10030;DHT22;5055;52.054;8.524;2022-09-09T08:14:12;18.60;97.00
10030;DHT22;5055;52.054;8.524;2022-09-09T08:16:44;18.80;97.00
10030;DHT22;5055;52.054;8.524;2022-09-09T08:19:13;18.90;97.00
10030;DHT22;5055;52.054;8.524;2022-09-09T08:21:44;19.00;97.00
10030;DHT22;5055;52.054;8.524;2022-09-09T08:24:13;19.20;97.00
10030;DHT22;5055;52.054;8.524;2022-09-09T08:26:43;19.30;97.00
10030;DHT22;5055;52.054;8.524;2022-09-09T08:29:13;19.60;97.00
10030;DHT22;5055;52.054;8.524;2022-09-09T08:31:44;19.70;97.00
10030;DHT22;5055;52.054;8.524;2022-09-09T08:34:13;19.90;97.00
10030;DHT22;5055;52.054;8.524;2022-09-09T08:36:44;20.20;97.00
10030;DHT22;5055;52.054;8.524;2022-09-09T08:39:14;20.50;97.00
10030;DHT22;5055;52.054;8.524;2022-09-09T08:41:58;20.70;97.00
10030;DHT22;5055;52.054;8.524;2022-09-09T08:44:38;21.00;97.00
10030;DHT22;5055;52.054;8.524;2022-09-09T08:47:21;21.40;97.00
10030;DHT22;5055;52.054;8.524;2022-09-09T08:52:51;21.30;97.00
10030;DHT22;5055;52.054;8.524;2022-09-09T08:55:25;21.10;97.00
10030;DHT22;5055;52.054;8.524;2022-09-09T08:57:57;21.00;97.00
10030;DHT22;5055;52.054;8.524;2022-09-09T09:00:34;21.20;97.00
10030;DHT22;5055;52.054;8.524;2022-09-09T09:03:09;21.40;97.00
10030;DHT22;5055;52.054;8.524;2022-09-09T09:05:46;21.50;97.00
10030;DHT22;5055;52.054;8.524;2022-09-09T09:08:24;21.30;97.00
10030;DHT22;5055;52.054;8.524;2022-09-09T09:10:57;21.60;97.00
10030;DHT22;5055;52.054;8.524;2022-09-09T09:13:32;21.70;97.00
10030;DHT22;5055;52.054;8.524;2022-09-09T09:16:16;22.20;97.00
10030;DHT22;5055;52.054;8.524;2022-09-09T09:18:47;22.40;97.00
10030;DHT22;5055;52.054;8.524;2022-09-09T09:21:17;22.20;97.00
10030;DHT22;5055;52.054;8.524;2022-09-09T09:23:55;21.90;97.00
10030;DHT22;5055;52.054;8.524;2022-09-09T09:26:31;21.30;97.00
10030;DHT22;5055;52.054;8.524;2022-09-09T09:29:10;21.00;97.00
10030;DHT22;5055;52.054;8.524;2022-09-09T09:31:43;21.00;97.00
10030;DHT22;5055;52.054;8.524;2022-09-09T09:34:12;21.10;97.00
10030;DHT22;5055;52.054;8.524;2022-09-09T09:36:45;21.20;97.00
10030;DHT22;5055;52.054;8.524;2022-09-09T09:39:25;21.20;97.00
10030;DHT22;5055;52.054;8.524;2022-09-09T09:42:16;21.20;97.00
10030;DHT22;5055;52.054;8.524;2022-09-09T09:44:51;21.00;97.00
10030;DHT22;5055;52.054;8.524;2022-09-09T09:47:21;21.40;97.00
10030;DHT22;5055;52.054;8.524;2022-09-09T09:49:53;21.40;97.00
10030;DHT22;5055;52.054;8.524;2022-09-09T09:52:23;21.50;97.00
10030;DHT22;5055;52.054;8.524;2022-09-09T09:54:54;21.40;97.00
10030;DHT22;5055;52.054;8.524;2022-09-09T09:57:27;22.00;97.00
10030;DHT22;5055;52.054;8.524;2022-09-09T10:00:14;22.10;97.00
10030;DHT22;5055;52.054;8.524;2022-09-09T10:02:45;21.70;97.00
10030;DHT22;5055;52.054;8.524;2022-09-09T10:05:19;21.30;97.00
10030;DHT22;5055;52.054;8.524;2022-09-09T10:08:09;21.20;97.00
10030;DHT22;5055;52.054;8.524;2022-09-09T10:10:59;21.20;97.00
10030;DHT22;5055;52.054;8.524;2022-09-09T10:13:35;20.90;97.00
10030;DHT22;5055;52.054;8.524;2022-09-09T10:16:21;20.70;97.00
10030;DHT22;5055;52.054;8.524;2022-09-09T10:18:59;21.00;97.00
10030;DHT22;5055;52.054;8.524;2022-09-09T10:25:02;21.90;97.00
10030;DHT22;5055;52.054;8.524;2022-09-09T10:27:40;22.20;97.00
10030;DHT22;5055;52.054;8.524;2022-09-09T10:30:16;22.60;97.00
10030;DHT22;5055;52.054;8.524;2022-09-09T10:32:49;22.80;97.00
10030;DHT22;5055;52.054;8.524;2022-09-09T10:35:29;22.90;97.00
10030;DHT22;5055;52.054;8.524;2022-09-09T10:38:14;23.20;97.00
10030;DHT22;5055;52.054;8.524;2022-09-09T10:41:00;23.50;97.00
10030;DHT22;5055;52.054;8.524;2022-09-09T10:43:51;23.90;97.00
10030;DHT22;5055;52.054;8.524;2022-09-09T10:46:34;24.10;97.00
10030;DHT22;5055;52.054;8.524;2022-09-09T10:49:13;23.60;97.00
10030;DHT22;5055;52.054;8.524;2022-09-09T10:51:55;23.20;97.00
10030;DHT22;5055;52.054;8.524;2022-09-09T10:54:35;22.90;97.00
10030;DHT22;5055;52.054;8.524;2022-09-09T10:57:11;22.80;97.00
10030;DHT22;5055;52.054;8.524;2022-09-09T10:59:47;22.70;97.00
10030;DHT22;5055;52.054;8.524;2022-09-09T11:02:20;22.90;97.00
10030;DHT22;5055;52.054;8.524;2022-09-09T11:04:57;23.10;97.00
10030;DHT22;5055;52.054;8.524;2022-09-09T11:07:32;23.30;97.00
10030;DHT22;5055;52.054;8.524;2022-09-09T11:10:06;23.70;97.00
10030;DHT22;5055;52.054;8.524;2022-09-09T11:12:39;23.70;97.00
10030;DHT22;5055;52.054;8.524;2022-09-09T11:15:17;23.60;97.00
10030;DHT22;5055;52.054;8.524;2022-09-09T11:17:49;23.70;97.00
10030;DHT22;5055;52.054;8.524;2022-09-09T11:20:18;23.60;97.00
10030;DHT22;5055;52.054;8.524;2022-09-09T11:22:50;24.00;97.00
10030;DHT22;5055;52.054;8.524;2022-09-09T11:25:25;24.60;97.00
10030;DHT22;5055;52.054;8.524;2022-09-09T11:28:11;24.80;97.00
10030;DHT22;5055;52.054;8.524;2022-09-09T11:30:51;24.50;97.00
10030;DHT22;5055;52.054;8.524;2022-09-09T11:33:59;24.90;97.00
10030;DHT22;5055;52.054;8.524;2022-09-09T11:37:05;25.60;97.00
10030;DHT22;5055;52.054;8.524;2022-09-09T11:40:01;25.60;97.00
10030;DHT22;5055;52.054;8.524;2022-09-09T11:42:33;25.40;97.00
10030;DHT22;5055;52.054;8.524;2022-09-09T11:45:10;25.50;97.00
10030;DHT22;5055;52.054;8.524;2022-09-09T11:47:52;25.70;97.00
10030;DHT22;5055;52.054;8.524;2022-09-09T11:50:33;25.40;97.00
10030;DHT22;5055;52.054;8.524;2022-09-09T11:53:19;24.80;97.00
10030;DHT22;5055;52.054;8.524;2022-09-09T11:56:05;24.50;97.00
10030;DHT22;5055;52.054;8.524;2022-09-09T11:58:42;24.40;97.00
10030;DHT22;5055;52.054;8.524;2022-09-09T12:01:38;24.20;97.00
10030;DHT22;5055;52.054;8.524;2022-09-09T12:04:34;24.00;97.00
10030;DHT22;5055;52.054;8.524;2022-09-09T12:07:19;23.90;97.00
10030;DHT22;5055;52.054;8.524;2022-09-09T12:09:54;24.40;97.00
10030;DHT22;5055;52.054;8.524;2022-09-09T12:12:27;25.00;97.00
10030;DHT22;5055;52.054;8.524;2022-09-09T12:17:48;25.90;97.00
10030;DHT22;5055;52.054;8.524;2022-09-09T12:20:21;25.80;97.00
10030;DHT22;5055;52.054;8.524;2022-09-09T12:26:05;25.30;97.00
10030;DHT22;5055;52.054;8.524;2022-09-09T12:28:48;25.20;97.00
10030;DHT22;5055;52.054;8.524;2022-09-09T12:31:22;25.00;97.00
10030;DHT22;5055;52.054;8.524;2022-09-09T12:33:53;24.80;97.00
10030;DHT22;5055;52.054;8.524;2022-09-09T12:36:26;25.10;97.00
10030;DHT22;5055;52.054;8.524;2022-09-09T12:38:59;25.30;97.00
10030;DHT22;5055;52.054;8.524;2022-09-09T12:41:37;26.00;97.00
10030;DHT22;5055;52.054;8.524;2022-09-09T12:44:06;26.00;97.00
10030;DHT22;5055;52.054;8.524;2022-09-09T12:46:39;26.40;97.00
10030;DHT22;5055;52.054;8.524;2022-09-09T12:49:26;26.00;97.00
10030;DHT22;5055;52.054;8.524;2022-09-09T12:51:56;26.20;97.00
10030;DHT22;5055;52.054;8.524;2022-09-09T12:54:25;25.80;97.00
10030;DHT22;5055;52.054;8.524;2022-09-09T12:56:55;25.30;97.00
10030;DHT22;5055;52.054;8.524;2022-09-09T12:59:24;25.10;97.00
10030;DHT22;5055;52.054;8.524;2022-09-09T13:01:56;25.10;97.00
10030;DHT22;5055;52.054;8.524;2022-09-09T13:04:25;24.90;97.00
10030;DHT22;5055;52.054;8.524;2022-09-09T13:06:54;24.50;97.00
10030;DHT22;5055;52.054;8.524;2022-09-09T13:09:35;23.90;97.00
10030;DHT22;5055;52.054;8.524;2022-09-09T13:12:04;23.50;97.00
10030;DHT22;5055;52.054;8.524;2022-09-09T13:14:35;23.30;97.00
10030;DHT22;5055;52.054;8.524;2022-09-09T13:17:06;23.00;97.00
10030;DHT22;5055;52.054;8.524;2022-09-09T13:19:36;22.80;97.00
10030;DHT22;5055;52.054;8.524;2022-09-09T13:22:13;22.50;97.00
10030;DHT22;5055;52.054;8.524;2022-09-09T13:24:43;22.20;97.00
10030;DHT22;5055;52.054;8.524;2022-09-09T13:27:28;22.20;97.00
10030;DHT22;5055;52.054;8.524;2022-09-09T13:29:56;22.20;97.00
10030;DHT22;5055;52.054;8.524;2022-09-09T13:32:26;22.10;97.00
10030;DHT22;5055;52.054;8.524;2022-09-09T13:34:56;22.30;97.00
10030;DHT22;5055;52.054;8.524;2022-09-09T13:37:31;22.60;97.00
10030;DHT22;5055;52.054;8.524;2022-09-09T13:40:04;23.00;97.00
10030;DHT22;5055;52.054;8.524;2022-09-09T13:42:36;23.30;97.00
10030;DHT22;5055;52.054;8.524;2022-09-09T13:45:17;23.30;97.00
10030;DHT22;5055;52.054;8.524;2022-09-09T13:47:48;23.30;97.00
10030;DHT22;5055;52.054;8.524;2022-09-09T13:50:20;23.50;97.00
10030;DHT22;5055;52.054;8.524;2022-09-09T13:52:49;24.30;97.00
10030;DHT22;5055;52.054;8.524;2022-09-09T13:55:20;25.40;97.00
10030;DHT22;5055;52.054;8.524;2022-09-09T13:57:53;26.00;97.00
10030;DHT22;5055;52.054;8.524;2022-09-09T14:00:22;25.90;97.00
10030;DHT22;5055;52.054;8.524;2022-09-09T14:02:53;26.00;97.00
10030;DHT22;5055;52.054;8.524;2022-09-09T14:05:23;26.50;97.00
10030;DHT22;5055;52.054;8.524;2022-09-09T14:07:52;26.80;97.00
10030;DHT22;5055;52.054;8.524;2022-09-09T14:10:22;27.50;97.00
10030;DHT22;5055;52.054;8.524;2022-09-09T14:12:51;28.20;97.00
10030;DHT22;5055;52.054;8.524;2022-09-09T14:15:20;28.80;97.00
10030;DHT22;5055;52.054;8.524;2022-09-09T14:17:49;28.00;97.00
10030;DHT22;5055;52.054;8.524;2022-09-09T14:20:19;27.20;97.00
10030;DHT22;5055;52.054;8.524;2022-09-09T14:22:47;27.00;97.00
10030;DHT22;5055;52.054;8.524;2022-09-09T14:25:16;27.50;97.00
10030;DHT22;5055;52.054;8.524;2022-09-09T14:27:45;27.30;97.00
10030;DHT22;5055;52.054;8.524;2022-09-09T14:30:14;27.20;97.00
10030;DHT22;5055;52.054;8.524;2022-09-09T14:32:42;26.00;97.00
10030;DHT22;5055;52.054;8.524;2022-09-09T14:35:10;25.50;97.00
10030;DHT22;5055;52.054;8.524;2022-09-09T14:37:39;25.10;97.00
10030;DHT22;5055;52.054;8.524;2022-09-09T14:40:08;24.50;97.00
10030;DHT22;5055;52.054;8.524;2022-09-09T14:42:37;24.10;97.00
10030;DHT22;5055;52.054;8.524;2022-09-09T14:45:08;23.80;97.00
10030;DHT22;5055;52.054;8.524;2022-09-09T14:47:36;23.70;97.00
10030;DHT22;5055;52.054;8.524;2022-09-09T14:50:05;23.80;97.00
10030;DHT22;5055;52.054;8.524;2022-09-09T14:52:37;23.70;97.00
10030;DHT22;5055;52.054;8.524;2022-09-09T14:55:07;23.40;97.00
10030;DHT22;5055;52.054;8.524;2022-09-09T14:57:36;23.40;97.00
10030;DHT22;5055;52.054;8.524;2022-09-09T15:00:09;23.40;97.00
10030;DHT22;5055;52.054;8.524;2022-09-09T15:02:37;23.40;97.00
10030;DHT22;5055;52.054;8.524;2022-09-09T15:05:06;23.30;97.00
10030;DHT22;5055;52.054;8.524;2022-09-09T15:07:35;23.10;97.00
10030;DHT22;5055;52.054;8.524;2022-09-09T15:10:05;23.00;97.00
10030;DHT22;5055;52.054;8.524;2022-09-09T15:12:33;22.80;97.00
10030;DHT22;5055;52.054;8.524;2022-09-09T15:15:03;22.90;97.00
10030;DHT22;5055;52.054;8.524;2022-09-09T15:17:33;23.00;97.00
10030;DHT22;5055;52.054;8.524;2022-09-09T15:20:02;23.10;97.00
10030;DHT22;5055;52.054;8.524;2022-09-09T15:22:32;23.10;97.00
10030;DHT22;5055;52.054;8.524;2022-09-09T15:25:04;23.10;97.00
10030;DHT22;5055;52.054;8.524;2022-09-09T15:27:32;23.00;97.00
10030;DHT22;5055;52.054;8.524;2022-09-09T15:30:02;22.90;97.00
10030;DHT22;5055;52.054;8.524;2022-09-09T15:32:30;22.80;97.00
10030;DHT22;5055;52.054;8.524;2022-09-09T15:35:03;22.80;97.00
10030;DHT22;5055;52.054;8.524;2022-09-09T15:37:31;22.70;97.00
10030;DHT22;5055;52.054;8.524;2022-09-09T15:39:59;22.60;97.00
10030;DHT22;5055;52.054;8.524;2022-09-09T15:42:28;22.40;97.00
10030;DHT22;5055;52.054;8.524;2022-09-09T15:44:56;22.20;97.00
10030;DHT22;5055;52.054;8.524;2022-09-09T15:47:25;22.10;97.00
10030;DHT22;5055;52.054;8.524;2022-09-09T15:49:54;22.00;97.00
10030;DHT22;5055;52.054;8.524;2022-09-09T15:52:24;21.90;97.00
10030;DHT22;5055;52.054;8.524;2022-09-09T15:54:52;21.80;97.00
10030;DHT22;5055;52.054;8.524;2022-09-09T15:57:21;21.70;97.00
10030;DHT22;5055;52.054;8.524;2022-09-09T15:59:49;21.60;97.00
10030;DHT22;5055;52.054;8.524;2022-09-09T16:02:19;21.50;97.00
10030;DHT22;5055;52.054;8.524;2022-09-09T16:04:48;21.40;97.00
10030;DHT22;5055;52.054;8.524;2022-09-09T16:07:16;21.40;97.00
10030;DHT22;5055;52.054;8.524;2022-09-09T16:09:46;21.30;97.00
10030;DHT22;5055;52.054;8.524;2022-09-09T16:12:14;21.30;97.00
10030;DHT22;5055;52.054;8.524;2022-09-09T16:14:44;21.20;97.00
10030;DHT22;5055;52.054;8.524;2022-09-09T16:17:13;21.20;97.00
10030;DHT22;5055;52.054;8.524;2022-09-09T16:19:42;21.10;97.00
10030;DHT22;5055;52.054;8.524;2022-09-09T16:22:11;21.00;97.00
10030;DHT22;5055;52.054;8.524;2022-09-09T16:24:42;20.90;97.00
10030;DHT22;5055;52.054;8.524;2022-09-09T16:27:12;20.90;97.00
10030;DHT22;5055;52.054;8.524;2022-09-09T16:29:41;21.00;97.00
10030;DHT22;5055;52.054;8.524;2022-09-09T16:32:09;21.10;97.00
10030;DHT22;5055;52.054;8.524;2022-09-09T16:34:38;21.10;97.00